Time;durP1;ratioP1;P1;durP2;ratioP2;P2;SDS_P1;SDS_P2;PMS_P1;PMS_P2;Temp;Humidity;BMP_temperature;BMP_pressure;BME280_temperature;BME280_humidity;BME280_pressure;Samples;Min_cycle;Max_cycle;Signal;HPM_P1;HPM_P2
2023/05/09 00:00:45;;;;;;;8.88;7.60;;;5.30;99.90;;;;;;4983421;28;20054;-61
2023/05/09 00:03:13;;;;;;;8.55;7.43;;;5.20;99.90;;;;;;4972529;28;20058;-73
2023/05/09 00:05:40;;;;;;;8.23;6.25;;;5.20;99.90;;;;;;4979688;28;20042;-61
2023/05/09 00:08:07;;;;;;;8.27;5.75;;;5.30;99.90;;;;;;4984627;28;20170;-63
2023/05/09 00:10:34;;;;;;;13.02;6.97;;;5.20;99.90;;;;;;4984528;28;20058;-64
2023/05/09 00:13:01;;;;;;;7.75;6.95;;;5.30;99.90;;;;;;4983602;28;20445;-64
2023/05/09 00:15:29;;;;;;;7.20;6.28;;;5.30;99.90;;;;;;4989461;28;20065;-61
2023/05/09 00:17:56;;;;;;;9.07;6.30;;;5.30;99.90;;;;;;4979991;28;20073;-70
2023/05/09 00:20:23;;;;;;;8.68;6.35;;;5.30;99.90;;;;;;4983754;28;20062;-61
2023/05/09 00:22:50;;;;;;;8.73;5.97;;;5.30;99.90;;;;;;4979775;28;20047;-62
2023/05/09 00:25:17;;;;;;;12.00;6.38;;;5.20;99.90;;;;;;4986247;28;20056;-67
2023/05/09 00:27:44;;;;;;;7.72;5.80;;;5.20;99.90;;;;;;4986843;28;20529;-61
2023/05/09 00:30:11;;;;;;;10.25;6.38;;;5.20;99.90;;;;;;4983264;28;20049;-62
2023/05/09 00:32:40;;;;;;;7.07;5.28;;;5.20;99.90;;;;;;4977524;28;20145;-71
2023/05/09 00:35:08;;;;;;;9.93;6.22;;;5.20;99.90;;;;;;4995817;28;20061;-63
2023/05/09 00:37:36;;;;;;;8.18;5.28;;;5.20;99.90;;;;;;4981339;28;20510;-65
2023/05/09 00:40:05;;;;;;;11.27;6.32;;;5.20;99.90;;;;;;4989367;28;20142;-64
2023/05/09 00:42:32;;;;;;;7.25;5.47;;;5.20;99.90;;;;;;4986551;28;20054;-61
2023/05/09 00:44:59;;;;;;;5.70;4.95;;;5.20;99.90;;;;;;4983954;28;20057;-65
2023/05/09 00:47:27;;;;;;;7.85;5.93;;;5.30;99.90;;;;;;4986577;28;20049;-60
2023/05/09 00:49:56;;;;;;;6.40;5.53;;;5.30;99.90;;;;;;4985231;28;20069;-65
2023/05/09 00:52:25;;;;;;;7.30;5.50;;;5.30;99.90;;;;;;4989881;28;20063;-69
2023/05/09 00:54:53;;;;;;;6.78;5.28;;;5.20;99.90;;;;;;4985817;28;20108;-67
2023/05/09 00:57:20;;;;;;;9.65;5.50;;;5.20;99.90;;;;;;4979456;28;20058;-63
2023/05/09 00:59:48;;;;;;;8.00;5.78;;;5.20;99.90;;;;;;4967918;28;20070;-62
2023/05/09 01:02:16;;;;;;;8.35;5.80;;;5.20;99.90;;;;;;4975824;28;20383;-62
2023/05/09 01:04:47;;;;;;;9.57;5.50;;;5.20;99.90;;;;;;4981571;28;20054;-64
2023/05/09 01:07:38;;;;;;;10.45;6.63;;;5.10;99.90;;;;;;4979373;28;20136;-62
2023/05/09 01:10:16;;;;;;;7.65;6.10;;;5.10;99.90;;;;;;4981615;28;20507;-64
2023/05/09 01:12:53;;;;;;;7.57;5.50;;;5.10;99.90;;;;;;4981611;28;20080;-62
2023/05/09 01:15:42;;;;;;;11.38;6.70;;;5.00;99.90;;;;;;4998954;28;20047;-63
2023/05/09 01:18:39;;;;;;;7.95;5.38;;;5.00;99.90;;;;;;4979655;28;20444;-66
2023/05/09 01:21:13;;;;;;;7.00;5.63;;;4.90;99.90;;;;;;4975930;28;20060;-63
2023/05/09 01:23:43;;;;;;;8.00;6.22;;;5.00;99.90;;;;;;4983783;28;20053;-76
2023/05/09 01:26:35;;;;;;;7.88;6.05;;;4.90;99.90;;;;;;4996414;28;20046;-63
2023/05/09 01:29:35;;;;;;;7.80;5.68;;;4.90;99.90;;;;;;4976111;28;20531;-67
2023/05/09 01:32:07;;;;;;;6.65;5.78;;;4.90;99.90;;;;;;4960138;28;20050;-67
2023/05/09 01:34:37;;;;;;;9.35;5.78;;;4.90;99.90;;;;;;4975741;28;20057;-67
2023/05/09 01:37:05;;;;;;;7.13;6.03;;;4.90;99.90;;;;;;4978093;28;20386;-62
2023/05/09 01:39:33;;;;;;;7.65;5.35;;;4.90;99.90;;;;;;4986087;28;20524;-67
2023/05/09 01:42:03;;;;;;;7.18;5.93;;;4.90;99.90;;;;;;4984959;28;20130;-68
2023/05/09 01:44:37;;;;;;;8.30;6.05;;;4.80;99.90;;;;;;4980071;28;20477;-62
2023/05/09 01:47:06;;;;;;;7.80;5.47;;;4.80;99.90;;;;;;4973254;28;20504;-63
2023/05/09 01:49:36;;;;;;;8.05;6.10;;;4.80;99.90;;;;;;4974220;28;20130;-63
2023/05/09 01:52:07;;;;;;;4.38;3.47;;;4.80;99.90;;;;;;4974369;28;20121;-61
2023/05/09 01:54:36;;;;;;;7.18;6.13;;;4.80;99.90;;;;;;4982497;28;20597;-74
2023/05/09 01:57:03;;;;;;;7.47;5.93;;;4.80;99.90;;;;;;4996017;28;20046;-68
2023/05/09 01:59:33;;;;;;;7.55;5.97;;;4.80;99.90;;;;;;4976402;28;20054;-63
2023/05/09 02:02:02;;;;;;;9.43;6.67;;;4.70;99.90;;;;;;4977386;28;20775;-75
2023/05/09 02:04:30;;;;;;;7.50;6.00;;;4.70;99.90;;;;;;4978888;28;20428;-67
2023/05/09 02:06:58;;;;;;;10.23;6.07;;;4.60;99.90;;;;;;4986773;28;20062;-62
2023/05/09 02:09:25;;;;;;;8.63;6.55;;;4.70;99.90;;;;;;4981290;28;20055;-63
2023/05/09 02:11:53;;;;;;;6.85;5.22;;;4.60;99.90;;;;;;4972437;28;20413;-64
2023/05/09 02:14:20;;;;;;;7.40;5.50;;;4.60;99.90;;;;;;4978469;28;20050;-65
2023/05/09 02:16:47;;;;;;;6.57;5.47;;;4.60;99.90;;;;;;4977410;28;20046;-61
2023/05/09 02:19:15;;;;;;;5.93;5.32;;;4.60;99.90;;;;;;4984583;28;20062;-62
2023/05/09 02:21:42;;;;;;;6.93;5.55;;;4.50;99.90;;;;;;4978349;28;20512;-69
2023/05/09 02:24:09;;;;;;;7.25;5.55;;;4.50;99.90;;;;;;4985727;28;20046;-67
2023/05/09 02:26:38;;;;;;;7.60;5.55;;;4.50;99.90;;;;;;4983599;28;20133;-62
2023/05/09 02:29:06;;;;;;;8.90;5.90;;;4.50;99.90;;;;;;4982392;28;20042;-63
2023/05/09 02:31:34;;;;;;;7.72;5.47;;;4.50;99.90;;;;;;4982807;28;20424;-62
2023/05/09 02:34:03;;;;;;;8.43;6.30;;;4.40;99.90;;;;;;4977977;28;20061;-67
2023/05/09 02:36:31;;;;;;;6.20;4.88;;;4.40;99.90;;;;;;4975896;28;20145;-62
2023/05/09 02:39:00;;;;;;;7.57;5.72;;;4.40;99.90;;;;;;4974743;28;20064;-64
2023/05/09 02:41:29;;;;;;;7.88;5.72;;;4.40;99.90;;;;;;4976901;28;20073;-70
2023/05/09 02:43:56;;;;;;;7.93;6.07;;;4.40;99.90;;;;;;4974139;28;20043;-62
2023/05/09 02:46:23;;;;;;;7.30;6.18;;;4.30;99.90;;;;;;4975859;28;20145;-64
2023/05/09 02:48:50;;;;;;;7.82;6.05;;;4.30;99.90;;;;;;4979596;28;20069;-62
2023/05/09 02:51:17;;;;;;;8.05;5.93;;;4.30;99.90;;;;;;4980962;28;20528;-62
2023/05/09 02:53:44;;;;;;;6.85;6.05;;;4.30;99.90;;;;;;4995946;28;20046;-63
2023/05/09 02:56:11;;;;;;;7.32;5.47;;;4.30;99.90;;;;;;4979855;28;20065;-62
2023/05/09 02:58:38;;;;;;;5.97;5.38;;;4.30;99.90;;;;;;4981321;28;20097;-64
2023/05/09 03:01:05;;;;;;;10.27;6.75;;;4.30;99.90;;;;;;4990889;28;20046;-63
2023/05/09 03:03:33;;;;;;;11.48;6.13;;;4.30;99.90;;;;;;4984915;28;20050;-66
2023/05/09 03:06:02;;;;;;;9.00;5.80;;;4.30;99.90;;;;;;4974034;28;20066;-62
2023/05/09 03:08:29;;;;;;;6.55;5.93;;;4.20;99.90;;;;;;4980175;28;20086;-61
2023/05/09 03:10:57;;;;;;;6.50;5.85;;;4.20;99.90;;;;;;4987087;28;20054;-62
2023/05/09 03:13:24;;;;;;;6.57;5.38;;;4.20;99.90;;;;;;4984973;28;20058;-62
2023/05/09 03:15:51;;;;;;;7.03;5.90;;;4.20;99.90;;;;;;4978345;28;20138;-64
2023/05/09 03:18:18;;;;;;;6.40;5.45;;;4.20;99.90;;;;;;4992162;28;20069;-60
2023/05/09 03:20:46;;;;;;;8.07;5.88;;;4.20;99.90;;;;;;4957039;28;20137;-70
2023/05/09 03:23:13;;;;;;;10.82;5.60;;;4.30;99.90;;;;;;4988647;28;20059;-61
2023/05/09 03:25:40;;;;;;;8.18;5.50;;;4.30;99.90;;;;;;4980025;28;20054;-64
2023/05/09 03:28:07;;;;;;;7.15;5.05;;;4.30;99.90;;;;;;4974695;28;20054;-64
2023/05/09 03:30:34;;;;;;;10.38;6.20;;;4.30;99.90;;;;;;4976839;28;20117;-72
2023/05/09 03:33:00;;;;;;;6.60;5.28;;;4.30;99.90;;;;;;4990627;28;20046;-63
2023/05/09 03:35:27;;;;;;;6.43;5.05;;;4.30;99.90;;;;;;4977836;28;20097;-64
2023/05/09 03:37:54;;;;;;;6.68;5.05;;;4.40;99.90;;;;;;4982598;28;20062;-62
2023/05/09 03:40:21;;;;;;;7.32;5.43;;;4.40;99.90;;;;;;4976838;28;20138;-72
2023/05/09 03:42:56;;;;;;;6.47;5.85;;;4.50;99.90;;;;;;4976752;28;20423;-65
2023/05/09 03:45:23;;;;;;;6.90;5.10;;;4.50;99.90;;;;;;4978542;28;20062;-68
2023/05/09 03:47:50;;;;;;;7.00;4.80;;;4.50;99.90;;;;;;4970991;28;20529;-61
2023/05/09 03:50:17;;;;;;;8.82;5.47;;;4.50;99.90;;;;;;4992755;28;20061;-74
2023/05/09 03:52:44;;;;;;;7.55;5.13;;;4.50;99.90;;;;;;4977176;28;20047;-62
2023/05/09 03:55:14;;;;;;;9.95;4.28;;;4.60;99.90;;;;;;4988968;28;20046;-67
2023/05/09 03:57:42;;;;;;;6.40;5.50;;;4.60;99.90;;;;;;4981820;28;20066;-62
2023/05/09 04:00:10;;;;;;;7.07;4.57;;;4.60;99.90;;;;;;4984309;28;20843;-68
2023/05/09 04:02:40;;;;;;;5.80;4.80;;;4.70;99.90;;;;;;4978238;28;20093;-62
2023/05/09 04:05:13;;;;;;;6.20;4.70;;;4.70;99.90;;;;;;4983872;28;20113;-65
2023/05/09 04:07:41;;;;;;;7.18;3.90;;;4.80;99.90;;;;;;4984026;28;20131;-65
2023/05/09 04:10:08;;;;;;;6.40;3.88;;;4.80;99.90;;;;;;4985220;28;20062;-65
2023/05/09 04:12:35;;;;;;;5.60;4.32;;;4.80;99.90;;;;;;4978306;28;20081;-64
2023/05/09 04:15:03;;;;;;;4.75;4.32;;;4.90;99.90;;;;;;4981644;28;20093;-68
2023/05/09 04:17:30;;;;;;;5.50;3.92;;;5.00;99.90;;;;;;4981865;28;20073;-65
2023/05/09 04:19:57;;;;;;;6.20;4.43;;;5.10;99.90;;;;;;4972204;28;20069;-67
2023/05/09 04:22:24;;;;;;;4.40;3.72;;;5.10;99.90;;;;;;4986425;28;20073;-64
2023/05/09 04:24:51;;;;;;;5.32;4.55;;;5.30;99.90;;;;;;4982232;28;20097;-62
2023/05/09 04:27:18;;;;;;;4.43;3.88;;;5.40;99.90;;;;;;4979449;28;20149;-63
2023/05/09 04:29:45;;;;;;;6.40;4.00;;;5.50;99.90;;;;;;4983463;28;20054;-61
2023/05/09 04:32:14;;;;;;;9.23;4.43;;;5.70;99.90;;;;;;4988823;28;20061;-61
2023/05/09 04:34:41;;;;;;;4.30;3.63;;;5.70;99.90;;;;;;4976476;28;20059;-63
2023/05/09 04:37:15;;;;;;;7.55;4.05;;;5.80;99.90;;;;;;4981240;28;20133;-65
2023/05/09 04:39:43;;;;;;;6.55;3.33;;;6.10;99.90;;;;;;4985662;28;20502;-63
2023/05/09 04:42:19;;;;;;;6.28;3.97;;;6.10;99.90;;;;;;4977215;28;20050;-62
2023/05/09 04:44:48;;;;;;;5.43;2.97;;;6.20;99.90;;;;;;4982188;28;20456;-64
2023/05/09 04:47:15;;;;;;;8.70;4.25;;;6.30;99.90;;;;;;4978286;28;20074;-67
2023/05/09 04:49:41;;;;;;;6.57;3.47;;;6.40;99.90;;;;;;4979550;28;20132;-62
2023/05/09 04:52:08;;;;;;;5.90;3.92;;;6.50;99.90;;;;;;4974023;28;21082;-64
2023/05/09 04:54:35;;;;;;;5.63;3.38;;;6.60;99.90;;;;;;4968048;28;20050;-67
2023/05/09 04:57:05;;;;;;;4.97;3.20;;;6.60;99.90;;;;;;4977309;28;20137;-61
2023/05/09 04:59:45;;;;;;;5.63;2.97;;;6.70;99.90;;;;;;4973721;28;20124;-62
2023/05/09 05:02:13;;;;;;;3.35;3.05;;;6.80;99.90;;;;;;4984692;28;20061;-63
2023/05/09 05:04:41;;;;;;;5.05;2.90;;;6.90;99.90;;;;;;4983915;28;20057;-63
2023/05/09 05:07:08;;;;;;;3.47;2.97;;;7.00;99.90;;;;;;4985572;28;20388;-62
2023/05/09 05:09:35;;;;;;;7.55;2.97;;;7.10;99.90;;;;;;5003268;28;20050;-73
2023/05/09 05:12:05;;;;;;;2.90;2.50;;;7.30;99.90;;;;;;4983199;28;20034;-67
2023/05/09 05:14:36;;;;;;;4.78;2.67;;;7.40;99.90;;;;;;4979682;28;20066;-71
2023/05/09 05:17:04;;;;;;;3.50;2.83;;;7.50;99.90;;;;;;4997341;28;20165;-63
2023/05/09 05:19:32;;;;;;;12.95;3.35;;;7.50;99.90;;;;;;4991377;28;20153;-62
2023/05/09 05:22:01;;;;;;;5.30;3.28;;;7.60;99.90;;;;;;4986865;28;20085;-67
2023/05/09 05:24:30;;;;;;;6.63;3.35;;;7.70;99.90;;;;;;4986647;28;20082;-62
2023/05/09 05:26:57;;;;;;;4.53;3.10;;;7.80;99.90;;;;;;4982586;28;20058;-67
2023/05/09 05:29:24;;;;;;;3.10;2.80;;;8.00;99.90;;;;;;4979751;28;20081;-62
2023/05/09 05:31:51;;;;;;;3.45;2.25;;;8.10;99.90;;;;;;4982311;28;20080;-62
2023/05/09 05:34:19;;;;;;;5.20;2.67;;;8.10;99.80;;;;;;4979747;28;20065;-73
2023/05/09 05:36:47;;;;;;;5.00;3.13;;;8.30;99.60;;;;;;4983087;28;20157;-61
2023/05/09 05:39:14;;;;;;;4.75;3.75;;;8.30;99.00;;;;;;4981241;28;20051;-62
2023/05/09 05:41:41;;;;;;;8.43;3.25;;;8.40;99.20;;;;;;4988169;28;20140;-71
2023/05/09 05:44:09;;;;;;;6.60;2.90;;;8.50;98.90;;;;;;4975889;28;20043;-67
2023/05/09 05:46:36;;;;;;;5.97;3.30;;;8.60;98.70;;;;;;4979109;28;20145;-70
2023/05/09 05:49:04;;;;;;;9.07;3.80;;;8.70;98.20;;;;;;4976860;28;20378;-65
2023/05/09 05:51:32;;;;;;;5.90;3.22;;;8.80;98.20;;;;;;4981646;28;20065;-65
2023/05/09 05:54:00;;;;;;;12.30;4.38;;;9.00;98.10;;;;;;4980654;28;20074;-63
2023/05/09 05:56:27;;;;;;;4.65;3.33;;;9.00;98.20;;;;;;4982556;28;20051;-71
2023/05/09 05:58:55;;;;;;;3.38;2.55;;;9.20;98.00;;;;;;4980555;28;20499;-71
2023/05/09 06:01:22;;;;;;;4.53;2.83;;;9.40;97.10;;;;;;4981481;28;20069;-67
2023/05/09 06:03:53;;;;;;;9.75;3.03;;;9.60;97.20;;;;;;4982266;28;20509;-66
2023/05/09 06:06:25;;;;;;;7.45;3.10;;;9.70;97.30;;;;;;4979626;28;20050;-61
2023/05/09 06:08:54;;;;;;;3.92;3.13;;;9.80;97.20;;;;;;4982436;28;20672;-62
2023/05/09 06:11:22;;;;;;;3.55;2.90;;;10.00;97.00;;;;;;4984431;28;20096;-66
2023/05/09 06:13:48;;;;;;;4.10;2.50;;;10.00;97.20;;;;;;4977467;28;20141;-64
2023/05/09 06:16:16;;;;;;;4.90;2.33;;;10.10;97.30;;;;;;4979459;28;20078;-61
2023/05/09 06:18:48;;;;;;;6.15;3.40;;;10.20;97.00;;;;;;4988174;28;20208;-70
2023/05/09 06:21:15;;;;;;;9.40;2.95;;;10.20;97.80;;;;;;4973026;28;20130;-63
2023/05/09 06:23:42;;;;;;;6.50;3.03;;;10.40;97.10;;;;;;4969532;28;20061;-64
2023/05/09 06:26:29;;;;;;;5.65;3.38;;;10.40;97.60;;;;;;4976100;28;20054;-66
2023/05/09 06:28:56;;;;;;;5.30;2.40;;;10.50;97.00;;;;;;4979581;28;20050;-73
2023/05/09 06:31:22;;;;;;;5.28;2.90;;;10.60;96.10;;;;;;4972882;28;20145;-61
2023/05/09 06:33:51;;;;;;;8.48;2.78;;;10.70;95.40;;;;;;4980477;28;20070;-62
2023/05/09 06:36:18;;;;;;;4.20;3.38;;;10.90;95.60;;;;;;4975201;28;21057;-70
2023/05/09 06:38:45;;;;;;;1.90;1.80;;;11.00;95.40;;;;;;4974587;28;20054;-61
2023/05/09 06:41:12;;;;;;;4.07;2.08;;;11.20;94.50;;;;;;4977794;28;20549;-73
2023/05/09 06:43:39;;;;;;;3.45;2.47;;;11.30;93.80;;;;;;4980061;28;20058;-73
2023/05/09 06:46:06;;;;;;;2.80;2.15;;;11.40;93.70;;;;;;4980392;28;20380;-63
2023/05/09 06:48:33;;;;;;;3.85;3.00;;;11.50;93.70;;;;;;4981004;28;20067;-60
2023/05/09 06:50:59;;;;;;;3.13;2.33;;;11.50;93.50;;;;;;4979646;28;20234;-60
2023/05/09 06:53:26;;;;;;;2.35;1.92;;;11.70;93.50;;;;;;4984165;28;20054;-66
2023/05/09 06:55:53;;;;;;;8.27;2.80;;;11.80;92.50;;;;;;4971067;28;20051;-63
2023/05/09 06:58:20;;;;;;;3.03;2.10;;;11.90;92.50;;;;;;4980840;28;20363;-66
2023/05/09 07:00:47;;;;;;;4.75;2.35;;;12.00;92.90;;;;;;4980643;28;20162;-67
2023/05/09 07:03:14;;;;;;;2.42;2.22;;;12.10;92.20;;;;;;4971791;28;20043;-61
2023/05/09 07:05:41;;;;;;;3.78;2.20;;;12.30;92.20;;;;;;4981716;28;20463;-66
2023/05/09 07:08:08;;;;;;;2.67;2.17;;;12.40;90.50;;;;;;4978328;28;20050;-62
2023/05/09 07:10:35;;;;;;;2.97;1.90;;;12.50;89.70;;;;;;4973459;28;20061;-65
2023/05/09 07:13:02;;;;;;;3.65;2.13;;;12.60;90.30;;;;;;4981784;28;20075;-62
2023/05/09 07:15:29;;;;;;;2.35;1.77;;;12.70;90.10;;;;;;4976820;28;20515;-63
2023/05/09 07:18:07;;;;;;;3.80;2.53;;;12.90;89.50;;;;;;4975276;28;20129;-62
2023/05/09 07:20:34;;;;;;;2.22;1.92;;;12.90;90.20;;;;;;4975095;28;20389;-76
2023/05/09 07:23:04;;;;;;;4.35;2.08;;;13.10;89.00;;;;;;4974428;28;20047;-64
2023/05/09 07:25:31;;;;;;;3.35;2.42;;;13.20;88.90;;;;;;4982983;28;20054;-61
2023/05/09 07:27:58;;;;;;;3.50;2.15;;;13.30;86.30;;;;;;4976328;28;20366;-67
2023/05/09 07:30:25;;;;;;;3.83;2.60;;;13.50;85.70;;;;;;4983192;28;20124;-60
2023/05/09 07:32:52;;;;;;;5.10;2.55;;;13.60;84.60;;;;;;4977488;28;20058;-60
2023/05/09 07:35:20;;;;;;;4.80;3.17;;;13.70;85.90;;;;;;4980957;28;20043;-62
2023/05/09 07:37:46;;;;;;;5.05;3.28;;;13.70;83.30;;;;;;4983719;28;20070;-61
2023/05/09 07:40:13;;;;;;;2.70;2.30;;;13.80;84.40;;;;;;4974527;28;20055;-63
2023/05/09 07:42:45;;;;;;;5.13;2.88;;;14.00;84.20;;;;;;4976822;28;20419;-61
2023/05/09 07:45:11;;;;;;;;;;;14.00;83.70;;;;;;4974777;28;20222;-68
2023/05/09 07:47:39;;;;;;;7.32;3.05;;;14.10;83.30;;;;;;4978685;28;19929;-74
2023/05/09 07:50:06;;;;;;;5.38;2.83;;;14.20;84.30;;;;;;4979875;28;20758;-63
2023/05/09 07:52:33;;;;;;;6.00;2.78;;;14.30;85.20;;;;;;4978055;28;20054;-61
2023/05/09 07:55:00;;;;;;;3.25;2.40;;;14.40;84.20;;;;;;4981042;28;20051;-71
2023/05/09 07:57:26;;;;;;;5.30;3.28;;;14.60;85.50;;;;;;4980707;28;20050;-61
2023/05/09 07:59:53;;;;;;;5.93;3.33;;;14.70;82.80;;;;;;4983480;28;20054;-64
2023/05/09 08:02:20;;;;;;;5.25;4.03;;;14.80;81.90;;;;;;4985973;28;20695;-67
2023/05/09 08:04:47;;;;;;;4.05;3.25;;;14.90;82.10;;;;;;4983943;28;20525;-64
2023/05/09 08:07:15;;;;;;;4.85;2.67;;;15.00;82.50;;;;;;4985071;28;20463;-64
2023/05/09 08:09:41;;;;;;;3.95;3.03;;;15.20;81.80;;;;;;4981769;28;20081;-64
2023/05/09 08:12:08;;;;;;;4.97;3.13;;;15.30;82.10;;;;;;4975848;28;20504;-64
2023/05/09 08:14:35;;;;;;;3.10;2.72;;;15.40;81.50;;;;;;4977035;28;20057;-65
2023/05/09 08:17:02;;;;;;;3.17;2.88;;;15.40;81.00;;;;;;4986972;28;20076;-63
2023/05/09 08:19:29;;;;;;;3.92;3.17;;;15.50;82.10;;;;;;4984254;28;20415;-64
2023/05/09 08:21:56;;;;;;;6.90;3.38;;;15.60;81.90;;;;;;4977816;28;20077;-69
2023/05/09 08:24:22;;;;;;;10.45;3.83;;;15.70;81.40;;;;;;4982185;28;20524;-64
2023/05/09 08:26:49;;;;;;;7.32;3.35;;;15.80;81.50;;;;;;4979863;28;20503;-65
2023/05/09 08:29:16;;;;;;;3.95;3.08;;;15.80;82.30;;;;;;4980229;28;20149;-64
2023/05/09 08:31:43;;;;;;;3.42;3.13;;;15.90;81.60;;;;;;4982149;28;20473;-61
2023/05/09 08:34:10;;;;;;;4.45;3.25;;;15.90;81.60;;;;;;4981693;28;20086;-66
2023/05/09 08:36:38;;;;;;;4.50;3.63;;;16.10;81.20;;;;;;4976543;28;20138;-68
2023/05/09 08:39:05;;;;;;;3.83;3.28;;;16.10;81.40;;;;;;4986939;28;20055;-61
2023/05/09 08:41:34;;;;;;;4.25;3.08;;;16.20;81.40;;;;;;4980462;28;20050;-65
2023/05/09 08:44:02;;;;;;;5.75;2.78;;;16.40;81.80;;;;;;4984006;28;20050;-63
2023/05/09 08:46:37;;;;;;;4.35;3.47;;;16.50;82.00;;;;;;4983876;28;20050;-62
2023/05/09 08:49:06;;;;;;;4.10;3.08;;;16.50;81.70;;;;;;4979183;28;20060;-63
2023/05/09 08:51:34;;;;;;;5.70;3.85;;;16.30;86.90;;;;;;4982726;28;20054;-66
2023/05/09 08:54:01;;;;;;;3.85;3.50;;;16.20;87.80;;;;;;4985362;28;20465;-67
2023/05/09 08:56:30;;;;;;;5.22;2.78;;;16.00;87.90;;;;;;4970821;28;20732;-61
2023/05/09 08:58:57;;;;;;;5.13;4.20;;;16.00;88.80;;;;;;4975995;28;20043;-61
2023/05/09 09:01:25;;;;;;;3.65;3.03;;;16.10;84.00;;;;;;4986155;28;20058;-65
2023/05/09 09:03:52;;;;;;;4.40;3.60;;;16.00;89.70;;;;;;4979358;28;20161;-70
2023/05/09 09:06:22;;;;;;;10.02;4.45;;;16.00;89.10;;;;;;4996206;28;20133;-62
2023/05/09 09:08:49;;;;;;;4.88;3.72;;;15.90;90.50;;;;;;4979993;28;20105;-80
2023/05/09 09:11:17;;;;;;;6.00;3.67;;;15.30;92.10;;;;;;4980756;28;20386;-62
2023/05/09 09:13:46;;;;;;;7.82;3.90;;;15.20;92.30;;;;;;4976150;28;20558;-64
2023/05/09 09:16:21;;;;;;;4.40;2.95;;;15.30;91.00;;;;;;4978941;28;20050;-65
2023/05/09 09:18:51;;;;;;;4.47;3.47;;;15.70;84.70;;;;;;4982908;28;20093;-60
2023/05/09 09:21:19;;;;;;;6.78;3.10;;;16.10;83.60;;;;;;4974723;28;20085;-65
2023/05/09 09:23:47;;;;;;;5.03;4.53;;;16.40;83.50;;;;;;4984568;28;20052;-69
2023/05/09 09:26:15;;;;;;;4.28;3.50;;;16.70;82.10;;;;;;4980954;28;20074;-64
2023/05/09 09:28:42;;;;;;;6.10;4.10;;;16.90;81.40;;;;;;4981417;28;20124;-68
2023/05/09 09:31:18;;;;;;;4.05;2.78;;;17.00;80.50;;;;;;4982263;28;20065;-76
2023/05/09 09:33:46;;;;;;;5.82;3.33;;;17.10;81.10;;;;;;4987624;28;20061;-61
2023/05/09 09:36:13;;;;;;;4.60;4.00;;;17.30;81.20;;;;;;4984555;28;20734;-61
2023/05/09 09:38:42;;;;;;;3.50;3.08;;;17.40;81.20;;;;;;4979479;28;20050;-63
2023/05/09 09:41:11;;;;;;;5.85;3.63;;;17.50;81.80;;;;;;4981402;28;20393;-69
2023/05/09 09:43:43;;;;;;;8.75;3.92;;;17.60;82.70;;;;;;4979462;28;20038;-75
2023/05/09 09:46:12;;;;;;;7.25;4.20;;;17.70;82.50;;;;;;4974692;28;20053;-76
2023/05/09 09:48:49;;;;;;;5.43;4.28;;;17.70;80.80;;;;;;4983548;28;20053;-72
2023/05/09 09:51:17;;;;;;;4.47;3.75;;;17.60;79.50;;;;;;4976017;28;20101;-63
2023/05/09 09:53:44;;;;;;;6.72;4.35;;;17.70;81.10;;;;;;4977401;28;20073;-66
2023/05/09 09:56:11;;;;;;;5.82;5.18;;;17.80;80.50;;;;;;4973366;28;20057;-60
2023/05/09 09:58:38;;;;;;;7.40;4.95;;;17.40;82.50;;;;;;4974778;28;20057;-73
2023/05/09 10:01:12;;;;;;;4.80;3.78;;;17.00;84.60;;;;;;4979272;28;20090;-78
2023/05/09 10:03:41;;;;;;;4.38;3.47;;;16.70;86.10;;;;;;4980843;28;20330;-67
2023/05/09 10:06:15;;;;;;;5.88;3.58;;;16.50;84.90;;;;;;4977683;28;20038;-63
2023/05/09 10:08:48;;;;;;;6.88;3.90;;;16.50;84.60;;;;;;4976869;28;20132;-71
2023/05/09 10:11:15;;;;;;;5.05;3.28;;;16.70;85.10;;;;;;4978317;28;20108;-61
2023/05/09 10:13:43;;;;;;;6.22;4.45;;;16.50;83.40;;;;;;4978130;28;20133;-68
2023/05/09 10:16:11;;;;;;;5.13;3.22;;;16.50;84.90;;;;;;4973435;28;20524;-71
2023/05/09 10:18:41;;;;;;;5.97;3.63;;;16.70;84.30;;;;;;4973361;28;20597;-70
2023/05/09 10:21:13;;;;;;;5.95;3.50;;;16.60;84.50;;;;;;4980068;28;20138;-61
2023/05/09 10:23:45;;;;;;;7.38;4.50;;;16.60;84.60;;;;;;4978699;28;20046;-69
2023/05/09 10:26:27;;;;;;;5.15;4.32;;;16.50;84.20;;;;;;4977912;28;20133;-66
2023/05/09 10:28:56;;;;;;;5.70;4.57;;;16.60;85.80;;;;;;4974628;28;20416;-61
2023/05/09 10:31:27;;;;;;;6.93;4.68;;;16.50;86.70;;;;;;4977909;28;20047;-66
2023/05/09 10:33:54;;;;;;;4.20;3.80;;;16.50;87.80;;;;;;4982033;28;20198;-65
2023/05/09 10:36:22;;;;;;;7.05;4.70;;;16.60;86.00;;;;;;4986031;28;20051;-66
2023/05/09 10:38:54;;;;;;;6.95;4.35;;;16.80;84.60;;;;;;4980412;28;20125;-62
2023/05/09 10:41:22;;;;;;;8.15;3.70;;;16.90;84.60;;;;;;4966686;28;20056;-78
2023/05/09 10:43:49;;;;;;;7.40;3.47;;;17.00;81.80;;;;;;4991470;28;20484;-60
2023/05/09 10:46:17;;;;;;;5.97;3.97;;;17.30;80.70;;;;;;4987161;28;20074;-61
2023/05/09 10:48:46;;;;;;;5.57;3.83;;;17.40;79.80;;;;;;4961860;28;20055;-69
2023/05/09 10:51:13;;;;;;;5.53;3.67;;;17.50;79.60;;;;;;4973549;28;20083;-61
2023/05/09 10:53:44;;;;;;;6.68;4.57;;;17.50;78.40;;;;;;4975206;28;20051;-67
2023/05/09 10:56:23;;;;;;;6.50;4.45;;;17.60;79.30;;;;;;4979309;28;20412;-61
2023/05/09 10:58:50;;;;;;;5.10;3.53;;;17.70;79.40;;;;;;4973357;28;20047;-62
2023/05/09 11:01:33;;;;;;;4.53;4.10;;;18.00;79.60;;;;;;4978722;28;20050;-68
2023/05/09 11:04:08;;;;;;;6.47;3.92;;;18.10;77.90;;;;;;4983309;28;20049;-69
2023/05/09 11:06:49;;;;;;;6.47;3.83;;;18.20;78.40;;;;;;4976522;28;20077;-67
2023/05/09 11:09:33;;;;;;;3.63;3.33;;;18.20;79.10;;;;;;4982475;28;20378;-70
2023/05/09 11:12:09;;;;;;;5.70;3.67;;;18.30;77.90;;;;;;4971095;28;20042;-63
2023/05/09 11:14:41;;;;;;;8.25;4.20;;;18.40;77.20;;;;;;4973888;28;20050;-74
2023/05/09 11:17:28;;;;;;;5.05;3.10;;;18.20;76.60;;;;;;4975201;28;20051;-70
2023/05/09 11:20:04;;;;;;;6.78;4.13;;;18.40;76.80;;;;;;4973519;28;20054;-63
2023/05/09 11:22:42;;;;;;;6.28;3.90;;;18.50;76.90;;;;;;4979879;28;20046;-71
2023/05/09 11:25:15;;;;;;;5.55;4.72;;;18.40;77.40;;;;;;4979255;28;20587;-70
2023/05/09 11:27:48;;;;;;;8.93;4.35;;;18.50;76.80;;;;;;4977034;28;20468;-64
2023/05/09 11:30:19;;;;;;;4.15;3.00;;;18.80;77.70;;;;;;4976563;28;20173;-61
2023/05/09 11:32:57;;;;;;;9.57;3.83;;;18.90;75.50;;;;;;4981069;28;20038;-66
2023/05/09 11:35:27;;;;;;;4.82;3.92;;;18.80;74.20;;;;;;4975075;28;20051;-65
2023/05/09 11:38:05;;;;;;;4.25;3.85;;;18.40;74.40;;;;;;4977687;28;20156;-62
2023/05/09 11:40:33;;;;;;;3.97;3.17;;;18.40;75.20;;;;;;4974127;28;20092;-63
2023/05/09 11:43:01;;;;;;;4.63;3.28;;;18.40;74.80;;;;;;4981929;28;20050;-67
2023/05/09 11:45:31;;;;;;;6.47;3.58;;;18.60;76.40;;;;;;4984807;28;20064;-66
2023/05/09 11:48:02;;;;;;;4.80;3.42;;;18.70;74.80;;;;;;4982554;28;20057;-66
2023/05/09 11:50:29;;;;;;;4.53;3.72;;;18.60;74.10;;;;;;4977380;28;20065;-65
2023/05/09 11:52:57;;;;;;;4.95;4.15;;;18.40;74.60;;;;;;4977694;28;20066;-73
2023/05/09 11:55:24;;;;;;;3.38;3.08;;;18.60;75.10;;;;;;4976271;28;20397;-66
2023/05/09 11:57:52;;;;;;;5.97;3.72;;;18.60;74.10;;;;;;4979700;28;20046;-61
2023/05/09 12:00:22;;;;;;;5.78;3.88;;;18.70;73.10;;;;;;4979518;28;20077;-62
2023/05/09 12:02:50;;;;;;;3.63;3.20;;;18.70;74.80;;;;;;4973492;28;20034;-61
2023/05/09 12:05:21;;;;;;;3.33;3.03;;;18.80;73.70;;;;;;4987117;28;20050;-62
2023/05/09 12:07:48;;;;;;;5.95;3.60;;;18.70;72.70;;;;;;4980662;28;20061;-64
2023/05/09 12:10:21;;;;;;;5.07;3.38;;;18.80;75.60;;;;;;4977022;28;20065;-61
2023/05/09 12:12:50;;;;;;;8.63;4.13;;;18.90;72.40;;;;;;4981294;28;20058;-68
2023/05/09 12:15:19;;;;;;;4.32;3.97;;;18.70;72.20;;;;;;4983015;28;20161;-63
2023/05/09 12:17:59;;;;;;;7.80;4.00;;;18.50;72.80;;;;;;4974122;28;20050;-61
2023/05/09 12:20:26;;;;;;;5.28;3.20;;;18.50;71.80;;;;;;4975468;28;20493;-63
2023/05/09 12:22:53;;;;;;;6.18;3.17;;;18.30;70.80;;;;;;4969409;28;21037;-59
2023/05/09 12:25:21;;;;;;;4.47;3.28;;;18.30;72.70;;;;;;4971539;28;20121;-66
2023/05/09 12:27:48;;;;;;;6.68;2.97;;;18.50;73.40;;;;;;4974139;28;20075;-60
2023/05/09 12:30:17;;;;;;;5.72;3.67;;;18.50;70.50;;;;;;4974556;28;20049;-62
2023/05/09 12:32:45;;;;;;;6.35;2.95;;;18.40;69.90;;;;;;4973735;28;20449;-71
2023/05/09 12:35:12;;;;;;;5.15;2.45;;;18.30;70.40;;;;;;4986240;28;20133;-72
2023/05/09 12:37:39;;;;;;;7.70;3.58;;;18.40;69.90;;;;;;4973245;28;20507;-75
2023/05/09 12:40:14;;;;;;;5.90;3.50;;;18.20;70.10;;;;;;4977209;28;20089;-74
2023/05/09 12:42:44;;;;;;;3.95;2.75;;;18.30;70.50;;;;;;4977473;28;20133;-63
2023/05/09 12:45:12;;;;;;;7.00;3.28;;;18.40;70.30;;;;;;4987990;28;20042;-62
2023/05/09 12:47:44;;;;;;;4.40;3.45;;;18.40;69.20;;;;;;4981892;28;20059;-76
2023/05/09 12:50:12;;;;;;;5.38;3.30;;;18.40;70.10;;;;;;4986559;28;20583;-62
2023/05/09 12:52:41;;;;;;;7.22;4.03;;;18.20;68.60;;;;;;4980453;28;20054;-72
2023/05/09 12:55:27;;;;;;;3.35;3.00;;;18.20;69.20;;;;;;4979597;28;20059;-62
2023/05/09 12:58:02;;;;;;;3.30;2.97;;;18.00;69.60;;;;;;4988065;28;20136;-64
2023/05/09 13:00:42;;;;;;;5.00;3.13;;;18.20;69.90;;;;;;4986665;28;20046;-64